createdAt,value
2023-03-30T00:02:05.529Z,1.38
2023-03-30T00:04:34.797Z,1.40
2023-03-30T00:07:02.713Z,1.40
2023-03-30T00:09:32.355Z,1.23
2023-03-30T00:12:03.096Z,1.30
2023-03-30T00:14:32.142Z,1.40
2023-03-30T00:16:59.992Z,1.50
2023-03-30T00:19:27.707Z,1.40
2023-03-30T00:21:55.362Z,1.40
2023-03-30T00:24:23.092Z,1.33
2023-03-30T00:26:50.928Z,1.30
2023-03-30T00:29:18.727Z,1.30
2023-03-30T00:31:47.760Z,1.30
2023-03-30T00:34:15.595Z,1.30
2023-03-30T00:36:43.401Z,1.20
2023-03-30T00:39:11.104Z,1.45
2023-03-30T00:41:38.853Z,1.40
2023-03-30T00:44:08.241Z,1.40
2023-03-30T00:46:36.019Z,1.30
2023-03-30T00:49:08.771Z,1.30
2023-03-30T00:51:39.295Z,1.40
2023-03-30T00:54:09.620Z,1.40
2023-03-30T00:56:37.326Z,1.30
2023-03-30T00:59:05.039Z,1.50
2023-03-30T01:01:38.505Z,1.40
2023-03-30T01:04:09.863Z,1.48
2023-03-30T01:06:40.636Z,1.30
2023-03-30T01:09:08.904Z,1.30
2023-03-30T01:11:36.679Z,1.30
2023-03-30T01:14:07.618Z,1.40
2023-03-30T01:16:41.222Z,1.40
2023-03-30T01:19:25.021Z,1.33
2023-03-30T01:22:12.888Z,1.45
2023-03-30T01:25:15.127Z,1.40
2023-03-30T01:28:00.101Z,1.50
2023-03-30T01:30:35.207Z,1.27
2023-03-30T01:33:28.489Z,1.30
2023-03-30T01:36:26.520Z,1.40
2023-03-30T01:39:15.763Z,1.40
2023-03-30T01:41:48.969Z,1.33
2023-03-30T01:44:21.172Z,1.40
2023-03-30T01:46:52.730Z,1.40
2023-03-30T01:49:27.561Z,1.15
2023-03-30T01:52:01.768Z,1.40
2023-03-30T01:54:33.070Z,1.60
2023-03-30T01:57:05.116Z,1.30
2023-03-30T01:59:36.994Z,1.33
2023-03-30T02:02:07.174Z,1.40
2023-03-30T02:04:38.746Z,1.40
2023-03-30T02:07:10.124Z,1.40
2023-03-30T02:09:40.656Z,1.30
2023-03-30T02:12:10.377Z,1.50
2023-03-30T02:14:40.467Z,1.40
2023-03-30T02:17:11.668Z,1.50
2023-03-30T02:19:39.482Z,1.40
2023-03-30T02:22:08.664Z,1.50
2023-03-30T02:24:37.242Z,1.35
2023-03-30T02:27:06.722Z,1.50
2023-03-30T02:29:35.250Z,1.50
2023-03-30T02:32:03.091Z,1.35
2023-03-30T02:34:45.732Z,1.30
2023-03-30T16:31:54.003Z,1.20
2023-03-30T16:34:22.776Z,1.00
2023-03-30T16:36:50.540Z,0.98
2023-03-30T16:39:18.966Z,1.20
2023-03-30T16:41:46.750Z,1.10
2023-03-30T16:44:14.346Z,1.00
2023-03-30T16:46:42.695Z,1.20
2023-03-30T16:49:13.469Z,1.20
2023-03-30T16:51:40.989Z,1.10
2023-03-30T16:54:19.540Z,1.00
2023-03-30T16:56:55.059Z,1.08
2023-03-30T16:59:23.521Z,1.00
2023-03-30T17:01:51.633Z,1.25
2023-03-30T17:04:20.531Z,1.13
2023-03-30T17:06:48.298Z,1.10
2023-03-30T17:09:16.922Z,1.10
2023-03-30T17:11:44.792Z,1.10
2023-03-30T17:14:12.787Z,1.00
2023-03-30T17:16:40.710Z,1.20
2023-03-30T17:19:11.441Z,1.00
2023-03-30T17:21:42.888Z,1.10
2023-03-30T17:24:12.419Z,1.08
2023-03-30T17:26:40.306Z,1.02
2023-03-30T17:29:07.902Z,1.17
2023-03-30T17:31:35.613Z,1.10
2023-03-30T17:34:03.992Z,1.00
2023-03-30T17:36:31.799Z,1.17
2023-03-30T17:39:04.629Z,1.00
2023-03-30T17:41:33.826Z,1.10
2023-03-30T17:44:01.347Z,1.10
2023-03-30T17:46:29.099Z,1.10
2023-03-30T17:48:58.174Z,1.20
2023-03-30T17:51:25.722Z,1.00
2023-03-30T17:53:53.185Z,1.10
2023-03-30T17:56:22.353Z,1.10
2023-03-30T17:58:50.044Z,1.10
2023-03-30T18:01:17.560Z,0.98
2023-03-30T18:03:45.586Z,1.20
2023-03-30T18:06:13.708Z,0.98
2023-03-30T18:08:42.858Z,1.10
2023-03-30T18:11:10.590Z,1.20
2023-03-30T18:13:39.574Z,1.20
2023-03-30T18:16:07.244Z,1.10
2023-03-30T18:18:34.896Z,1.00
2023-03-30T18:21:04.259Z,0.98
2023-03-30T18:23:33.500Z,1.10
2023-03-30T18:26:01.562Z,1.10
2023-03-30T18:28:29.333Z,1.10
2023-03-30T18:31:00.378Z,1.10
2023-03-30T18:33:28.182Z,1.00
2023-03-30T18:35:56.683Z,1.00
2023-03-30T18:38:25.446Z,1.10
2023-03-30T18:40:57.419Z,1.00
2023-03-30T18:43:26.654Z,1.00
2023-03-30T18:45:57.295Z,1.13
2023-03-30T18:48:28.871Z,1.13
2023-03-30T18:50:56.569Z,1.20
2023-03-30T18:53:25.027Z,1.10
2023-03-30T18:55:53.942Z,1.10
2023-03-30T18:58:21.994Z,1.25
2023-03-30T19:00:50.348Z,1.10
2023-03-30T19:03:18.564Z,1.15
2023-03-30T19:05:47.562Z,1.10
2023-03-30T19:08:16.386Z,1.10
2023-03-30T19:10:44.861Z,1.20
2023-03-30T19:13:13.094Z,1.20
2023-03-30T19:15:40.696Z,1.20
2023-03-30T19:18:08.898Z,1.10
2023-03-30T19:20:37.800Z,1.10
2023-03-30T19:23:06.997Z,1.20
2023-03-30T19:25:34.637Z,1.10
2023-03-30T19:28:04.233Z,1.20
2023-03-30T19:30:32.880Z,1.10
2023-03-30T19:33:02.869Z,1.20
2023-03-30T19:35:30.583Z,1.20
2023-03-30T19:37:58.511Z,1.10
2023-03-30T19:40:27.578Z,1.20
2023-03-30T19:42:55.069Z,1.15
2023-03-30T19:45:23.688Z,1.20
2023-03-30T19:47:51.554Z,1.02
2023-03-30T19:50:20.557Z,1.05
2023-03-30T19:52:50.159Z,1.13
2023-03-30T19:58:14.969Z,1.10
2023-03-30T20:00:43.571Z,1.10
2023-03-30T20:03:12.134Z,1.20
2023-03-30T20:05:40.597Z,1.20
2023-03-30T20:08:17.264Z,1.00
2023-03-30T20:10:50.600Z,1.10
2023-03-30T20:13:21.908Z,1.10
2023-03-30T20:15:49.763Z,1.00
2023-03-30T20:18:18.366Z,1.10
2023-03-30T20:20:45.891Z,1.15
2023-03-30T20:23:13.731Z,1.10
2023-03-30T20:25:46.366Z,1.20
2023-03-30T20:28:14.122Z,1.10
2023-03-30T20:30:43.027Z,1.20
2023-03-30T20:33:10.915Z,1.00
2023-03-30T20:35:38.986Z,0.95
2023-03-30T20:38:08.247Z,1.17
2023-03-30T20:40:35.988Z,1.25
2023-03-30T20:43:05.291Z,1.10
2023-03-30T20:45:32.840Z,1.17
2023-03-30T20:48:22.462Z,1.10
2023-03-30T20:50:49.934Z,1.13
2023-03-30T20:53:17.744Z,1.20
2023-03-30T20:55:45.485Z,1.10
2023-03-30T20:58:12.980Z,1.20
2023-03-30T21:00:40.569Z,1.10
2023-03-30T21:03:09.570Z,1.10
2023-03-30T21:05:37.132Z,1.17
2023-03-30T21:08:07.724Z,1.10
2023-03-30T21:10:35.386Z,1.10
2023-03-30T21:13:02.874Z,1.10
2023-03-30T21:15:30.368Z,1.20
2023-03-30T21:17:57.917Z,1.10
2023-03-30T21:20:26.769Z,1.20
2023-03-30T21:22:54.245Z,1.20
2023-03-30T21:25:21.708Z,1.00
2023-03-30T21:27:49.184Z,1.13
2023-03-30T21:30:16.899Z,1.20
2023-03-30T21:32:44.362Z,1.10
2023-03-30T21:35:11.839Z,1.20
2023-03-30T21:37:40.843Z,1.10
2023-03-30T21:40:09.679Z,1.10
2023-03-30T21:42:37.144Z,1.00
2023-03-30T21:45:06.100Z,1.20
2023-03-30T21:47:33.626Z,1.10
2023-03-30T21:50:01.093Z,1.10
2023-03-30T21:52:29.361Z,1.27
2023-03-30T21:54:58.206Z,1.00
2023-03-30T21:57:26.037Z,1.20
2023-03-30T21:59:53.547Z,1.10
2023-03-30T22:02:21.038Z,1.10
2023-03-30T22:04:48.599Z,1.00
2023-03-30T22:07:16.257Z,1.20
2023-03-30T22:09:43.741Z,1.20
2023-03-30T22:12:12.662Z,0.98
2023-03-30T22:14:40.204Z,1.20
2023-03-30T22:17:11.243Z,0.95
2023-03-30T22:19:38.986Z,1.20
2023-03-30T22:22:06.476Z,1.05
2023-03-30T22:24:33.942Z,1.20
2023-03-30T22:27:01.428Z,1.20
2023-03-30T22:29:30.330Z,1.10
2023-03-30T22:31:57.841Z,1.23
2023-03-30T22:34:25.635Z,1.15
2023-03-30T22:36:54.287Z,1.17
2023-03-30T22:39:21.854Z,1.23
2023-03-30T22:41:49.728Z,1.20
2023-03-30T22:44:18.163Z,1.20
2023-03-30T22:46:46.997Z,1.17
2023-03-30T22:49:15.351Z,1.10
2023-03-30T22:51:51.240Z,1.13
2023-03-30T22:54:20.531Z,1.20
2023-03-30T22:56:48.910Z,1.20
2023-03-30T22:59:16.459Z,1.25
2023-03-30T23:01:44.007Z,1.10
2023-03-30T23:04:13.128Z,1.10
2023-03-30T23:06:40.628Z,1.20
2023-03-30T23:09:08.112Z,1.20
2023-03-30T23:11:35.794Z,1.17
2023-03-30T23:14:05.171Z,1.10
2023-03-30T23:16:35.529Z,1.10
2023-03-30T23:19:03.472Z,1.00
2023-03-30T23:21:34.282Z,1.10
2023-03-30T23:24:03.055Z,1.10
2023-03-30T23:26:30.532Z,1.08
2023-03-30T23:28:57.986Z,1.23
2023-03-30T23:31:26.775Z,1.10
2023-03-30T23:33:54.880Z,1.10
2023-03-30T23:36:23.847Z,1.10
2023-03-30T23:38:54.202Z,1.10
2023-03-30T23:41:22.125Z,1.10
2023-03-30T23:43:52.096Z,1.20
2023-03-30T23:46:19.703Z,1.10
2023-03-30T23:48:47.253Z,1.00
2023-03-30T23:51:14.751Z,1.00
2023-03-30T23:53:42.232Z,1.10
2023-03-30T23:56:13.372Z,1.20
2023-03-30T23:58:41.419Z,1.20
